Time;durP1;ratioP1;P1;durP2;ratioP2;P2;SDS_P1;SDS_P2;PMS_P1;PMS_P2;Temp;Humidity;BMP_temperature;BMP_pressure;BME280_temperature;BME280_humidity;BME280_pressure;Samples;Min_cycle;Max_cycle;Signal;HPM_P1;HPM_P2
2023/05/21 00:00:37;;;;;;;7.93;2.83;;;;;;;20.29;56.82;98687.25;4918527;29;20182;-86
2023/05/21 00:03:04;;;;;;;5.97;2.53;;;;;;;20.13;56.93;98680.75;4919177;29;20299;-87
2023/05/21 00:05:29;;;;;;;5.40;2.57;;;;;;;20.19;56.96;98682.81;4917562;29;20268;-86
2023/05/21 00:07:56;;;;;;;4.60;2.57;;;;;;;20.11;56.94;98681.91;4919544;29;20264;-87
2023/05/21 00:10:23;;;;;;;5.67;2.27;;;;;;;20.22;56.94;98671.03;4919299;29;20185;-86
2023/05/21 00:12:48;;;;;;;4.93;2.40;;;;;;;20.27;56.97;98676.75;4919265;29;20175;-87
2023/05/21 00:15:15;;;;;;;7.00;3.10;;;;;;;20.34;56.62;98676.97;4919208;29;20184;-87
2023/05/21 00:17:42;;;;;;;5.83;2.80;;;;;;;20.21;57.04;98672.00;4917792;29;20762;-87
2023/05/21 00:20:09;;;;;;;6.77;2.90;;;;;;;20.13;56.28;98664.78;4900458;29;20258;-88
2023/05/21 00:22:35;;;;;;;6.77;2.70;;;;;;;20.16;56.76;98661.81;4899919;29;20193;-87
2023/05/21 00:25:03;;;;;;;4.80;2.47;;;;;;;20.08;56.65;98661.75;4900387;29;20245;-87
2023/05/21 00:27:28;;;;;;;8.90;2.97;;;;;;;20.45;56.08;98658.09;4900059;29;20250;-87
2023/05/21 00:29:55;;;;;;;6.47;2.93;;;;;;;20.49;55.90;98662.16;4918826;29;20198;-87
2023/05/21 00:32:21;;;;;;;7.37;2.90;;;;;;;20.35;55.67;98660.88;4919342;29;20178;-87
2023/05/21 00:34:48;;;;;;;8.17;2.47;;;;;;;20.29;56.13;98653.47;4919347;29;20592;-87
2023/05/21 00:37:15;;;;;;;8.37;2.47;;;;;;;20.44;55.75;98640.47;4918668;29;20672;-86
2023/05/21 00:39:42;;;;;;;4.70;2.37;;;;;;;20.36;55.31;98657.19;4918943;29;20181;-88
2023/05/21 00:42:08;;;;;;;5.90;2.50;;;;;;;20.50;55.43;98650.50;4918869;29;20208;-87
2023/05/21 00:44:35;;;;;;;4.80;2.13;;;;;;;20.35;55.41;98652.88;4918558;29;20246;-87
2023/05/21 00:47:02;;;;;;;4.93;2.50;;;;;;;20.25;55.58;98648.63;4918714;29;20217;-87
2023/05/21 00:49:28;;;;;;;5.67;2.50;;;;;;;20.30;55.69;98649.00;4918573;29;20600;-87
2023/05/21 00:51:55;;;;;;;5.73;2.40;;;;;;;20.30;55.79;98646.34;4918408;29;20193;-86
2023/05/21 00:54:22;;;;;;;4.73;2.53;;;;;;;20.13;56.52;98642.66;4918419;29;20174;-87
2023/05/21 00:56:50;;;;;;;20.83;4.57;;;;;;;20.13;56.50;98638.19;4918390;29;20542;-87
2023/05/21 00:59:17;;;;;;;7.60;2.57;;;;;;;20.03;56.88;98637.41;4902952;29;20583;-87
2023/05/21 01:01:44;;;;;;;5.40;2.50;;;;;;;19.75;57.72;98633.16;4899375;29;20179;-87
2023/05/21 01:04:12;;;;;;;5.80;2.60;;;;;;;19.85;58.06;98641.06;4899420;29;20327;-86
2023/05/21 01:06:38;;;;;;;6.50;2.73;;;;;;;19.88;57.69;98630.97;4914180;29;20545;-86
2023/05/21 01:09:06;;;;;;;7.63;3.33;;;;;;;19.76;58.01;98632.16;4910565;29;20676;-86
2023/05/21 01:11:43;;;;;;;5.73;2.90;;;;;;;19.74;58.46;98626.16;4918399;29;20188;-87
2023/05/21 01:14:11;;;;;;;9.77;2.77;;;;;;;19.86;58.21;98624.97;4918040;29;20184;-87
2023/05/21 01:16:41;;;;;;;5.43;2.50;;;;;;;19.77;58.15;98623.19;4916802;29;20707;-87
2023/05/21 01:19:11;;;;;;;6.43;2.83;;;;;;;19.80;58.36;98630.88;4917072;29;20197;-86
2023/05/21 01:21:41;;;;;;;5.07;2.70;;;;;;;19.80;58.15;98630.88;4918446;29;20663;-88
2023/05/21 01:24:08;;;;;;;5.40;2.53;;;;;;;19.75;58.91;98622.53;4918145;29;20212;-87
2023/05/21 01:26:37;;;;;;;7.00;2.87;;;;;;;19.73;58.75;98618.34;4918414;29;20226;-87
2023/05/21 01:29:05;;;;;;;4.50;2.30;;;;;;;19.87;58.62;98629.28;4918117;29;20229;-87
2023/05/21 01:31:58;;;;;;;7.13;2.53;;;;;;;19.96;58.16;98624.88;4917760;29;20208;-87
2023/05/21 01:34:40;;;;;;;8.70;2.50;;;;;;;20.06;58.00;98628.31;4917876;29;20204;-87
2023/05/21 01:37:17;;;;;;;6.03;2.47;;;;;;;20.19;57.03;98615.44;4917681;29;20170;-86
2023/05/21 01:39:52;;;;;;;5.80;2.50;;;;;;;20.20;57.13;98619.78;4917938;29;20615;-87
2023/05/21 01:42:22;;;;;;;5.93;2.67;;;;;;;20.35;56.62;98614.78;4917522;29;20216;-87
2023/05/21 01:44:54;;;;;;;8.67;2.53;;;;;;;20.28;56.17;98616.38;4918054;29;20617;-88
2023/05/21 01:47:26;;;;;;;5.70;2.80;;;;;;;20.33;56.58;98622.09;4917694;29;20190;-87
2023/05/21 01:49:51;;;;;;;9.70;2.53;;;;;;;20.29;55.88;98612.72;4917822;29;20249;-87
2023/05/21 01:52:18;;;;;;;5.57;2.33;;;;;;;20.20;55.74;98607.28;4917458;29;20326;-87
2023/05/21 01:54:45;;;;;;;4.93;2.17;;;;;;;20.26;56.10;98615.72;4917437;29;20205;-87
2023/05/21 01:57:12;;;;;;;5.73;2.87;;;;;;;20.10;56.71;98614.53;4917658;29;20707;-86
2023/05/21 01:59:37;;;;;;;7.70;3.10;;;;;;;20.13;56.44;98611.56;4917197;29;20253;-86
2023/05/21 02:02:03;;;;;;;5.27;2.47;;;;;;;20.12;56.56;98619.72;4916349;29;20281;-87
2023/05/21 02:04:28;;;;;;;6.73;2.90;;;;;;;19.99;56.93;98613.94;4917836;29;20242;-86
2023/05/21 02:06:55;;;;;;;5.33;2.50;;;;;;;20.18;56.89;98611.09;4917279;29;20269;-87
2023/05/21 02:09:22;;;;;;;8.23;2.80;;;;;;;20.20;56.81;98609.13;4917333;29;20190;-86
2023/05/21 02:11:47;;;;;;;6.93;3.00;;;;;;;20.30;56.81;98614.41;4917478;29;20613;-87
2023/05/21 02:14:12;;;;;;;6.27;2.87;;;;;;;20.26;56.65;98616.53;4917184;29;20271;-87
2023/05/21 02:16:39;;;;;;;6.70;3.07;;;;;;;20.32;56.45;98615.91;4917410;29;20193;-87
2023/05/21 02:19:05;;;;;;;7.00;2.90;;;;;;;20.32;56.54;98613.25;4917020;29;20198;-87
2023/05/21 02:21:31;;;;;;;4.70;2.40;;;;;;;20.45;56.24;98610.19;4917087;29;20299;-87
2023/05/21 02:23:56;;;;;;;5.50;2.77;;;;;;;20.52;56.09;98605.94;4916957;29;20285;-87
2023/05/21 02:26:23;;;;;;;6.60;3.00;;;;;;;20.52;56.40;98613.91;4917016;29;20245;-87
2023/05/21 02:28:51;;;;;;;12.77;2.70;;;;;;;20.62;55.70;98607.47;4916207;29;20265;-87
2023/05/21 02:31:18;;;;;;;4.03;2.70;;;;;;;20.71;55.61;98611.03;4917496;29;20189;-87
2023/05/21 02:33:45;;;;;;;5.03;2.97;;;;;;;20.67;55.34;98610.53;4916815;29;20218;-87
2023/05/21 02:36:12;;;;;;;8.40;2.53;;;;;;;20.54;55.29;98607.44;4916964;29;20182;-87
2023/05/21 02:38:42;;;;;;;5.53;3.00;;;;;;;20.66;55.15;98613.34;4916988;29;20186;-87
2023/05/21 02:41:11;;;;;;;5.83;2.70;;;;;;;20.70;55.44;98615.50;4917462;29;20170;-87
2023/05/21 02:43:38;;;;;;;6.73;3.53;;;;;;;20.56;55.66;98612.59;4917327;29;20643;-86
2023/05/21 02:46:05;;;;;;;7.37;3.50;;;;;;;20.53;55.37;98610.25;4916851;29;20186;-87
2023/05/21 02:48:32;;;;;;;7.70;2.93;;;;;;;20.58;55.54;98615.94;4916871;29;20621;-87
2023/05/21 02:50:58;;;;;;;4.90;2.30;;;;;;;20.52;55.24;98611.25;4916921;29;20652;-87
2023/05/21 02:53:25;;;;;;;5.33;2.60;;;;;;;20.37;56.10;98610.97;4916692;29;20193;-87
2023/05/21 02:55:50;;;;;;;6.60;2.80;;;;;;;20.44;57.36;98613.84;4917063;29;20175;-86
2023/05/21 02:58:17;;;;;;;6.20;3.07;;;;;;;20.34;57.71;98608.59;4916992;29;20260;-86
2023/05/21 03:00:44;;;;;;;10.13;3.60;;;;;;;20.26;57.35;98607.72;4916884;29;20191;-87
2023/05/21 03:03:10;;;;;;;5.17;2.80;;;;;;;20.05;57.88;98610.66;4916938;29;20198;-87
2023/05/21 03:05:35;;;;;;;8.27;2.90;;;;;;;20.08;58.36;98613.84;4916951;29;20179;-86
2023/05/21 03:08:01;;;;;;;6.23;2.30;;;;;;;20.14;57.88;98607.94;4916283;29;20624;-86
2023/05/21 03:10:26;;;;;;;7.80;2.90;;;;;;;20.21;57.92;98603.66;4916693;29;20549;-87
2023/05/21 03:12:53;;;;;;;6.67;3.10;;;;;;;20.18;56.92;98613.75;4916677;29;20182;-86
2023/05/21 03:15:22;;;;;;;6.97;3.10;;;;;;;20.05;57.45;98616.81;4916628;29;20233;-86
2023/05/21 03:17:49;;;;;;;6.13;3.10;;;;;;;19.91;57.45;98616.53;4916393;29;20236;-86
2023/05/21 03:20:17;;;;;;;7.90;3.53;;;;;;;20.06;57.53;98615.84;4917072;29;20241;-86
2023/05/21 03:22:44;;;;;;;5.97;2.60;;;;;;;19.92;57.18;98619.03;4916495;29;20667;-86
2023/05/21 03:25:12;;;;;;;5.07;2.50;;;;;;;20.06;57.26;98622.97;4916331;29;20192;-87
2023/05/21 03:27:38;;;;;;;9.73;2.30;;;;;;;19.93;57.15;98620.69;4916477;29;20174;-87
2023/05/21 03:30:05;;;;;;;6.47;2.60;;;;;;;20.03;57.52;98621.47;4916414;29;20188;-86
2023/05/21 03:32:32;;;;;;;6.27;3.37;;;;;;;20.15;57.04;98614.09;4916192;29;20215;-86
2023/05/21 03:34:58;;;;;;;4.87;2.90;;;;;;;20.26;56.78;98621.84;4916453;29;20175;-86
2023/05/21 03:37:24;;;;;;;5.43;2.30;;;;;;;20.22;56.55;98617.81;4916401;29;20186;-86
2023/05/21 03:39:49;;;;;;;6.73;2.60;;;;;;;20.30;56.65;98611.75;4918806;29;20174;-86
2023/05/21 03:42:15;;;;;;;6.60;2.40;;;;;;;20.19;56.49;98608.31;4919721;29;20217;-86
2023/05/21 03:44:40;;;;;;;6.63;2.67;;;;;;;20.26;56.63;98613.88;4919795;29;20584;-87
2023/05/21 03:47:06;;;;;;;4.43;2.30;;;;;;;20.19;56.36;98613.63;4919002;29;20640;-87
2023/05/21 03:49:32;;;;;;;7.53;2.93;;;;;;;20.23;56.90;98608.81;4919656;29;20258;-86
2023/05/21 03:51:59;;;;;;;5.87;2.83;;;;;;;19.91;55.95;98614.72;4918937;29;20556;-86
2023/05/21 03:54:25;;;;;;;9.07;2.90;;;;;;;20.11;56.80;98618.03;4919434;29;20215;-87
2023/05/21 03:56:51;;;;;;;7.63;2.37;;;;;;;20.08;56.22;98613.84;4919833;29;20264;-86
2023/05/21 03:59:16;;;;;;;7.47;2.57;;;;;;;20.13;56.00;98619.56;4919386;29;20189;-86
2023/05/21 04:01:44;;;;;;;4.97;2.57;;;;;;;19.87;56.44;98615.13;4919585;29;20213;-87
2023/05/21 04:04:10;;;;;;;8.67;2.50;;;;;;;20.00;56.75;98620.91;4919183;29;20261;-86
2023/05/21 04:06:37;;;;;;;6.53;2.70;;;;;;;20.09;56.47;98614.69;4918465;29;20189;-86
2023/05/21 04:09:03;;;;;;;5.90;2.67;;;;;;;20.31;56.45;98614.22;4919219;29;20192;-87
2023/05/21 04:11:30;;;;;;;7.53;2.47;;;;;;;20.34;56.00;98619.25;4919326;29;20769;-86
2023/05/21 04:13:56;;;;;;;5.57;2.80;;;;;;;20.30;57.19;98622.38;4919473;29;20255;-86
2023/05/21 04:16:23;;;;;;;8.50;2.63;;;;;;;20.47;56.81;98629.50;4919112;29;20186;-87
2023/05/21 04:18:51;;;;;;;5.67;3.00;;;;;;;20.50;57.91;98630.03;4918961;29;20304;-86
2023/05/21 04:21:17;;;;;;;6.07;2.70;;;;;;;20.52;57.55;98624.56;4919622;29;20259;-87
2023/05/21 04:23:44;;;;;;;8.00;2.87;;;;;;;20.46;59.97;98642.00;4918970;29;20297;-87
2023/05/21 04:26:15;;;;;;;8.77;2.93;;;;;;;20.58;58.33;98639.91;4918740;29;20194;-88
2023/05/21 04:28:41;;;;;;;5.80;2.70;;;;;;;20.71;57.79;98648.31;4919474;29;20181;-87
2023/05/21 04:31:08;;;;;;;4.63;2.20;;;;;;;20.71;58.22;98645.66;4917776;29;20178;-87
2023/05/21 04:33:35;;;;;;;5.27;2.70;;;;;;;20.56;57.81;98649.88;4918223;29;20189;-87
2023/05/21 04:36:02;;;;;;;4.33;2.07;;;;;;;20.53;58.50;98645.69;4917844;29;20565;-87
2023/05/21 04:38:29;;;;;;;5.67;2.73;;;;;;;20.56;59.60;98648.06;4919109;29;20723;-87
2023/05/21 04:40:57;;;;;;;7.03;2.53;;;;;;;20.57;60.02;98649.72;4918967;29;20207;-87
2023/05/21 04:43:27;;;;;;;5.97;2.67;;;;;;;20.63;59.08;98649.09;4918525;29;20223;-87
2023/05/21 04:45:53;;;;;;;7.63;2.33;;;;;;;20.47;58.58;98651.63;4918730;29;20256;-87
2023/05/21 04:48:19;;;;;;;7.53;2.37;;;;;;;20.54;59.46;98652.72;4918193;29;20537;-87
2023/05/21 04:50:46;;;;;;;5.87;2.80;;;;;;;20.65;58.75;98647.09;4918163;29;20189;-87
2023/05/21 04:53:11;;;;;;;5.97;3.17;;;;;;;20.62;58.21;98650.06;4918774;29;20540;-86
2023/05/21 04:55:38;;;;;;;7.37;3.17;;;;;;;20.56;60.11;98655.22;4918435;29;20182;-87
2023/05/21 04:58:05;;;;;;;5.77;3.00;;;;;;;20.61;59.81;98652.91;4918665;29;20636;-86
2023/05/21 05:00:32;;;;;;;5.83;3.03;;;;;;;20.71;58.14;98664.28;4918184;29;20178;-86
2023/05/21 05:02:57;;;;;;;5.80;3.20;;;;;;;20.65;59.13;98659.63;4917296;29;20210;-87
2023/05/21 05:05:24;;;;;;;8.20;3.27;;;;;;;20.72;59.34;98658.84;4917349;29;20193;-87
2023/05/21 05:08:05;;;;;;;8.47;3.60;;;;;;;20.82;58.96;98666.72;4918070;29;20213;-88
2023/05/21 05:10:32;;;;;;;5.30;2.73;;;;;;;20.86;58.98;98659.25;4918148;29;20169;-88
2023/05/21 05:12:59;;;;;;;6.67;2.93;;;;;;;20.86;59.42;98662.72;4917612;29;20653;-88
2023/05/21 05:15:40;;;;;;;;;;;;;;;;;;;;;
2023/05/21 05:18:12;;;;;;;4.83;2.80;;;;;;;20.70;62.45;98668.78;4902050;29;20241;-88
2023/05/21 05:20:38;;;;;;;5.37;3.00;;;;;;;20.62;63.81;98662.59;4929652;29;20630;-88
2023/05/21 05:23:05;;;;;;;5.90;2.80;;;;;;;20.59;64.76;98660.22;4911687;29;20897;-88
2023/05/21 05:25:32;;;;;;;6.27;2.93;;;;;;;20.58;65.85;98663.88;4918518;29;20190;-88
2023/05/21 05:27:57;;;;;;;11.40;3.73;;;;;;;20.59;66.57;98661.06;4918417;29;20249;-88
2023/05/21 05:30:24;;;;;;;5.97;3.17;;;;;;;20.68;66.61;98664.59;4917707;29;20190;-88
2023/05/21 05:32:51;;;;;;;4.37;2.27;;;;;;;20.83;65.55;98660.41;4918109;29;20185;-88
2023/05/21 05:35:16;;;;;;;5.50;2.67;;;;;;;20.84;65.36;98665.56;4915211;29;20321;-88
2023/05/21 05:37:43;;;;;;;4.53;2.60;;;;;;;20.83;64.84;98668.41;4916737;29;20627;-88
2023/05/21 05:40:12;;;;;;;4.93;2.70;;;;;;;20.87;62.75;98666.22;4917312;29;20183;-88
2023/05/21 05:42:40;;;;;;;12.60;4.00;;;;;;;20.84;62.61;98670.88;4921648;29;20214;-87
2023/05/21 05:45:11;;;;;;;8.03;2.90;;;;;;;20.73;62.06;98665.81;4913276;29;20186;-88
2023/05/21 05:47:37;;;;;;;7.07;3.67;;;;;;;20.37;62.76;98676.66;4917153;29;20216;-88
2023/05/21 05:50:05;;;;;;;6.93;2.40;;;;;;;20.36;64.25;98672.34;4916421;29;20216;-88
2023/05/21 05:52:31;;;;;;;8.80;3.30;;;;;;;20.39;65.50;98670.19;4916490;29;20629;-89
2023/05/21 05:54:57;;;;;;;4.93;3.03;;;;;;;20.39;64.12;98675.53;4917960;29;20218;-88
2023/05/21 05:57:26;;;;;;;5.33;2.93;;;;;;;20.36;63.53;98669.69;4917402;29;20187;-89
2023/05/21 05:59:56;;;;;;;8.07;3.30;;;;;;;20.14;64.90;98665.63;4916228;29;20189;-89
2023/05/21 06:03:02;;;;;;;5.83;3.03;;;;;;;20.15;64.28;98665.47;4916723;29;20194;-88
2023/05/21 06:05:31;;;;;;;5.17;2.73;;;;;;;20.10;65.15;98659.75;4916577;29;20189;-89
2023/05/21 06:07:57;;;;;;;6.37;3.07;;;;;;;20.06;65.84;98663.72;4916281;29;20659;-88
2023/05/21 06:10:23;;;;;;;7.43;3.50;;;;;;;20.10;66.33;98658.91;4918441;29;20648;-88
2023/05/21 06:13:19;;;;;;;6.40;3.70;;;;;;;19.99;67.65;98665.34;4917194;29;20178;-89
2023/05/21 06:15:56;;;;;;;;;;;;;;;;;;;;;
2023/05/21 06:18:54;;;;;;;8.37;4.00;;;;;;;19.87;68.17;98671.84;4917304;29;20204;-88
2023/05/21 06:21:29;;;;;;;;;;;;;;;;;;;;;
2023/05/21 06:24:46;;;;;;;8.03;3.67;;;;;;;19.91;68.38;98675.88;4917892;29;20271;-89
2023/05/21 06:30:49;;;;;;;;;;;;;;;;;;;;;
2023/05/21 06:36:30;;;;;;;;;;;;;;;;;;;;;
2023/05/21 06:39:03;;;;;;;6.60;3.57;;;;;;;19.91;66.78;98675.88;4917855;29;20500;-89
2023/05/21 06:44:38;;;;;;;;;;;;;;;;;;;;;
2023/05/21 06:47:09;;;;;;;7.07;3.50;;;;;;;20.15;66.89;98668.13;4916891;29;20212;-88
2023/05/21 06:49:35;;;;;;;8.97;3.40;;;;;;;19.89;67.89;98661.88;4916187;29;20196;-89
2023/05/21 06:52:12;;;;;;;;;;;;;;;;;;;;;
2023/05/21 06:55:20;;;;;;;;;;;;;;;;;;;;;
2023/05/21 06:58:17;;;;;;;;;;;;;;;;;;;;;
2023/05/21 07:00:50;;;;;;;7.73;3.47;;;;;;;20.08;66.10;98667.06;4908104;29;20182;-88
2023/05/21 07:03:16;;;;;;;6.20;3.13;;;;;;;20.22;67.16;98666.56;4910105;29;20208;-88
2023/05/21 07:05:41;;;;;;;6.93;3.20;;;;;;;20.21;66.31;98667.53;4908437;29;20194;-88
2023/05/21 07:08:19;;;;;;;6.13;2.77;;;;;;;20.18;65.40;98669.63;4899974;29;20314;-87
2023/05/21 07:10:45;;;;;;;11.10;3.47;;;;;;;20.32;65.07;98673.63;4907048;29;20276;-88
2023/05/21 07:13:27;;;;;;;7.67;3.40;;;;;;;20.43;66.80;98670.75;4910768;29;20576;-88
2023/05/21 07:20:00;;;;;;;;;;;;;;;;;;;;;
2023/05/21 07:29:15;;;;;;;8.43;3.87;;;;;;;20.73;68.68;98654.31;4918629;29;20194;-88
2023/05/21 07:35:08;;;;;;;4.50;2.63;;;;;;;20.51;66.39;98663.66;4903993;29;20206;-88
2023/05/21 07:37:46;;;;;;;;;;;;;;;;;;;;;
2023/05/21 07:40:20;;;;;;;8.40;3.60;;;;;;;20.43;67.81;98670.75;4908239;29;20187;-88
2023/05/21 07:43:23;;;;;;;7.77;2.97;;;;;;;20.48;68.42;98668.44;4915546;29;20219;-89
2023/05/21 07:45:48;;;;;;;10.37;3.40;;;;;;;20.41;67.11;98668.25;4907607;29;20188;-88
2023/05/21 07:48:14;;;;;;;8.03;2.93;;;;;;;20.36;64.50;98667.03;4922905;29;20186;-88
2023/05/21 07:50:47;;;;;;;5.53;2.80;;;;;;;20.56;65.75;98663.19;4902724;29;20253;-88
2023/05/21 07:53:12;;;;;;;8.53;3.63;;;;;;;20.49;66.59;98665.63;4903143;29;20182;-88
2023/05/21 07:55:46;;;;;;;4.37;2.90;;;;;;;20.78;66.22;98668.00;4909604;29;20191;-88
2023/05/21 07:58:12;;;;;;;6.43;2.97;;;;;;;20.55;64.86;98664.16;4909196;29;20189;-87
2023/05/21 08:00:46;;;;;;;7.57;3.13;;;;;;;20.68;67.48;98664.59;4911123;29;20281;-88
2023/05/21 08:03:15;;;;;;;5.90;2.73;;;;;;;20.98;64.91;98666.81;4922022;29;20223;-87
2023/05/21 08:05:47;;;;;;;5.60;3.00;;;;;;;21.17;63.46;98665.81;4906980;29;20202;-87
2023/05/21 08:08:13;;;;;;;6.97;2.90;;;;;;;21.38;64.10;98675.03;4910561;29;20179;-87
2023/05/21 08:10:38;;;;;;;10.57;2.87;;;;;;;21.25;64.04;98671.19;4914104;29;20197;-87
2023/05/21 08:13:04;;;;;;;6.37;2.70;;;;;;;21.12;59.42;98674.25;4907391;29;20195;-87
2023/05/21 08:15:30;;;;;;;8.83;3.53;;;;;;;21.13;60.49;98675.94;4907295;29;20198;-87
2023/05/21 08:17:55;;;;;;;5.33;2.63;;;;;;;21.33;62.64;98674.69;4906871;29;20198;-87
2023/05/21 08:20:21;;;;;;;9.83;2.27;;;;;;;21.52;60.47;98675.44;4910730;29;20245;-87
2023/05/21 08:22:47;;;;;;;9.60;2.60;;;;;;;21.31;60.81;98665.19;4905729;29;20218;-87
2023/05/21 08:25:12;;;;;;;7.23;2.83;;;;;;;21.35;61.52;98667.41;4912089;29;20278;-88
2023/05/21 08:27:38;;;;;;;7.37;3.33;;;;;;;21.59;63.25;98671.16;4902583;29;20625;-87
2023/05/21 08:30:10;;;;;;;3.93;2.37;;;;;;;21.38;61.01;98663.56;4903134;29;20271;-87
2023/05/21 08:32:36;;;;;;;5.57;2.80;;;;;;;21.62;61.91;98670.84;4910145;29;20193;-87
2023/05/21 08:35:02;;;;;;;5.60;2.20;;;;;;;21.82;62.67;98669.56;4902286;29;20270;-88
2023/05/21 08:37:27;;;;;;;11.20;2.87;;;;;;;22.07;63.81;98671.31;4904805;29;20195;-87
2023/05/21 08:39:52;;;;;;;4.77;2.60;;;;;;;22.28;61.04;98669.00;4907199;29;20222;-87
2023/05/21 08:42:41;;;;;;;3.80;2.30;;;;;;;22.26;59.96;98671.00;4909228;29;20195;-87
2023/05/21 08:45:10;;;;;;;6.60;2.33;;;;;;;22.36;59.37;98665.50;4909984;29;20191;-87
2023/05/21 08:47:35;;;;;;;5.93;2.77;;;;;;;22.21;58.96;98667.16;4908183;29;20195;-87
2023/05/21 08:50:08;;;;;;;7.57;2.77;;;;;;;22.30;58.94;98672.31;4907716;29;20206;-87
2023/05/21 08:52:33;;;;;;;8.27;2.47;;;;;;;22.46;60.09;98676.84;4904741;29;20183;-87
2023/05/21 08:54:59;;;;;;;7.00;2.10;;;;;;;22.39;59.25;98674.03;4906024;29;20262;-87
2023/05/21 08:57:26;;;;;;;5.33;2.27;;;;;;;22.62;59.06;98671.50;4909783;29;20665;-88
2023/05/21 08:59:51;;;;;;;5.47;1.93;;;;;;;22.45;58.07;98681.38;4917852;29;20190;-86
2023/05/21 09:02:18;;;;;;;7.43;2.30;;;;;;;22.58;57.28;98684.38;4907734;29;20202;-87
2023/05/21 09:04:49;;;;;;;7.20;2.67;;;;;;;22.46;58.03;98684.84;4908504;29;20218;-88
2023/05/21 09:07:15;;;;;;;4.27;2.10;;;;;;;22.69;58.90;98682.41;4903040;29;20329;-87
2023/05/21 09:09:49;;;;;;;4.80;2.37;;;;;;;22.64;58.87;98683.72;4910177;29;20187;-87
2023/05/21 09:12:15;;;;;;;7.67;2.53;;;;;;;22.68;58.74;98680.72;4900350;29;20205;-86
2023/05/21 09:14:42;;;;;;;5.67;2.47;;;;;;;22.58;57.17;98695.06;4906051;29;20579;-87
2023/05/21 09:17:07;;;;;;;5.43;2.23;;;;;;;22.66;57.68;98683.56;4901377;29;20195;-87
2023/05/21 09:19:33;;;;;;;5.23;2.47;;;;;;;22.74;57.91;98690.75;4909005;29;20204;-87
2023/05/21 09:22:02;;;;;;;7.73;2.50;;;;;;;22.69;56.44;98685.06;4920561;29;20201;-87
2023/05/21 09:24:30;;;;;;;7.20;2.27;;;;;;;22.96;55.44;98687.38;4911699;29;20241;-87
2023/05/21 09:26:57;;;;;;;10.20;2.90;;;;;;;23.06;56.79;98685.38;4917213;29;20249;-87
2023/05/21 09:29:24;;;;;;;4.03;2.10;;;;;;;22.98;52.21;98688.88;4917890;29;20640;-87
2023/05/21 09:31:53;;;;;;;5.03;1.93;;;;;;;22.63;52.42;98689.25;4917690;29;20277;-87
2023/05/21 09:34:19;;;;;;;4.33;2.43;;;;;;;22.79;53.26;98685.72;4916803;29;20670;-87
2023/05/21 09:36:45;;;;;;;4.70;2.10;;;;;;;22.41;52.11;98693.38;4917503;29;20213;-87
2023/05/21 09:39:28;;;;;;;4.83;2.00;;;;;;;22.87;52.64;98683.06;4917949;29;20182;-87
2023/05/21 09:41:56;;;;;;;5.47;2.53;;;;;;;23.04;53.13;98690.03;4917986;29;20254;-87
2023/05/21 09:44:23;;;;;;;7.27;2.77;;;;;;;23.13;52.90;98691.69;4918124;29;20230;-87
2023/05/21 09:46:50;;;;;;;4.37;2.20;;;;;;;22.99;52.67;98690.53;4916539;29;20201;-88
2023/05/21 09:49:23;;;;;;;6.03;2.23;;;;;;;23.03;53.72;98685.69;4916501;29;20711;-87
2023/05/21 09:51:54;;;;;;;4.17;2.00;;;;;;;23.00;54.47;98683.38;4917524;29;20215;-87
2023/05/21 09:54:22;;;;;;;6.23;2.80;;;;;;;22.60;54.95;98682.38;4917812;29;20616;-87
2023/05/21 09:56:52;;;;;;;5.70;2.50;;;;;;;22.53;54.87;98688.56;4916477;29;20696;-87
2023/05/21 09:59:19;;;;;;;6.23;2.50;;;;;;;21.84;56.13;98692.41;4916450;29;20182;-87
2023/05/21 10:01:45;;;;;;;7.03;3.23;;;;;;;22.01;57.54;98680.78;4917406;29;20330;-87
2023/05/21 10:04:12;;;;;;;5.13;2.20;;;;;;;22.04;57.21;98677.81;4916289;29;20210;-87
2023/05/21 10:06:46;;;;;;;8.50;2.37;;;;;;;22.21;57.98;98678.69;4916790;29;20194;-87
2023/05/21 10:09:17;;;;;;;9.97;3.13;;;;;;;22.20;58.65;98673.47;4911146;29;20191;-87
2023/05/21 10:11:43;;;;;;;6.00;2.43;;;;;;;22.33;59.23;98672.00;4915469;29;20186;-87
2023/05/21 10:14:16;;;;;;;5.37;2.73;;;;;;;22.50;58.75;98683.53;4917017;29;20197;-87
2023/05/21 10:16:42;;;;;;;5.33;2.73;;;;;;;22.54;57.72;98671.50;4916953;29;20187;-87
2023/05/21 10:19:09;;;;;;;5.10;2.80;;;;;;;22.59;55.27;98670.00;4917127;29;20204;-87
2023/05/21 10:21:35;;;;;;;6.03;3.43;;;;;;;22.53;56.44;98678.72;4917650;29;20194;-87
2023/05/21 10:24:03;;;;;;;5.90;3.00;;;;;;;22.50;56.79;98683.53;4917003;29;20202;-87
2023/05/21 10:26:29;;;;;;;5.17;2.50;;;;;;;22.62;56.44;98675.03;4917114;29;20277;-86
2023/05/21 10:28:58;;;;;;;4.97;2.53;;;;;;;22.63;55.92;98668.72;4916973;29;20178;-87
2023/05/21 10:31:25;;;;;;;6.27;2.70;;;;;;;22.78;57.06;98673.34;4917269;29;20246;-87
2023/05/21 10:33:54;;;;;;;5.30;2.57;;;;;;;22.91;56.96;98673.69;4917486;29;20529;-87
2023/05/21 10:36:23;;;;;;;4.73;2.43;;;;;;;23.13;57.07;98670.31;4916257;29;20553;-87
2023/05/21 10:38:48;;;;;;;12.50;2.60;;;;;;;23.13;58.12;98670.31;4916976;29;20180;-87
2023/05/21 10:41:16;;;;;;;6.00;2.20;;;;;;;23.02;57.72;98673.34;4916904;29;20205;-86
2023/05/21 10:44:03;;;;;;;4.33;2.30;;;;;;;23.13;57.51;98663.13;4916820;29;20665;-87
2023/05/21 10:46:54;;;;;;;10.47;3.00;;;;;;;23.37;55.59;98667.59;4916885;29;20174;-87
2023/05/21 10:49:34;;;;;;;6.07;2.33;;;;;;;23.30;56.13;98665.72;4919040;29;20246;-87
2023/05/21 10:52:11;;;;;;;7.37;2.20;;;;;;;23.59;56.56;98674.84;4921537;29;20163;-87
2023/05/21 10:54:54;;;;;;;5.60;2.20;;;;;;;23.82;54.13;98666.88;4920403;29;20194;-87
2023/05/21 10:57:47;;;;;;;4.53;2.17;;;;;;;23.74;54.29;98683.81;4920731;29;20174;-87
2023/05/21 11:00:17;;;;;;;11.23;2.70;;;;;;;23.91;53.61;98673.84;4919908;29;20186;-87
2023/05/21 11:02:44;;;;;;;5.80;2.30;;;;;;;24.08;52.93;98677.28;4919414;29;20214;-87
2023/05/21 11:05:11;;;;;;;5.00;2.20;;;;;;;23.96;51.11;98684.88;4920378;29;20752;-87
2023/05/21 11:08:00;;;;;;;4.83;2.07;;;;;;;24.05;51.95;98674.94;4920478;29;20182;-87
2023/05/21 11:10:44;;;;;;;5.20;2.27;;;;;;;24.41;52.05;98668.03;4920424;29;20163;-87
2023/05/21 11:13:18;;;;;;;4.50;2.30;;;;;;;24.26;55.84;98665.31;4920055;29;20184;-87
2023/05/21 11:16:28;;;;;;;4.27;2.03;;;;;;;24.57;50.41;98667.91;4917651;29;20189;-87
2023/05/21 11:20:04;;;;;;;5.30;2.10;;;;;;;24.78;51.80;98660.03;4916122;29;20712;-87
2023/05/21 11:34:07;;;;;;;5.33;2.03;;;;;;;25.37;48.91;98654.69;4836217;29;20639;-88
2023/05/21 11:36:43;;;;;;;5.03;2.40;;;;;;;25.51;48.91;98661.94;4812133;29;20251;-87
2023/05/21 11:42:40;;;;;;;6.35;2.10;;;;;;;25.82;46.76;98659.03;4889210;29;20660;-88
2023/05/21 11:45:45;;;;;;;;;;;;;;;;;;;;;
2023/05/21 11:48:48;;;;;;;5.93;2.15;;;;;;;26.03;47.59;98653.69;4911649;29;20205;-88
2023/05/21 11:55:00;;;;;;;;;;;;;;;;;;;;;
2023/05/21 11:57:51;;;;;;;6.43;2.03;;;;;;;26.14;44.03;98651.38;4915888;29;20595;-87
2023/05/21 12:00:50;;;;;;;;;;;;;;;;;;;;;
2023/05/21 12:03:25;;;;;;;6.37;2.10;;;;;;;26.04;44.46;98637.41;4911418;29;20577;-87
2023/05/21 12:06:08;;;;;;;4.97;1.93;;;;;;;25.87;43.88;98638.66;4917664;29;20268;-88
2023/05/21 12:08:41;;;;;;;4.70;2.70;;;;;;;25.99;45.45;98645.19;4917487;29;20201;-88
2023/05/21 12:11:10;;;;;;;7.00;1.87;;;;;;;25.91;46.78;98637.25;4918698;29;20249;-88
2023/05/21 12:13:37;;;;;;;5.37;2.10;;;;;;;25.83;46.39;98629.31;4914984;29;20190;-88
2023/05/21 12:16:09;;;;;;;3.57;1.83;;;;;;;26.03;47.19;98638.41;4916602;29;20614;-87
2023/05/21 12:18:47;;;;;;;;;;;;;;;;;;;;;
2023/05/21 12:21:14;;;;;;;9.20;2.37;;;;;;;26.15;44.66;98634.22;4919106;29;20193;-89
2023/05/21 12:26:46;;;;;;;3.77;1.80;;;;;;;25.42;45.44;98633.53;4915789;29;20194;-88
2023/05/21 12:29:16;;;;;;;5.77;2.40;;;;;;;25.58;46.55;98626.13;4917645;29;20202;-87
2023/05/21 12:31:56;;;;;;;6.50;2.17;;;;;;;25.82;46.23;98619.59;4924400;29;20265;-87
2023/05/21 12:34:43;;;;;;;5.03;2.00;;;;;;;25.90;44.65;98614.09;4918382;29;20186;-88
2023/05/21 12:37:13;;;;;;;6.20;2.30;;;;;;;25.91;44.84;98610.41;4918670;29;20189;-87
2023/05/21 12:39:45;;;;;;;6.90;2.50;;;;;;;25.98;46.06;98616.66;4918628;29;20187;-87
2023/05/21 12:42:13;;;;;;;4.27;2.00;;;;;;;26.03;46.94;98614.25;4918700;29;20194;-87
2023/05/21 12:44:44;;;;;;;5.43;2.23;;;;;;;26.04;47.05;98615.91;4918635;29;20189;-87
2023/05/21 12:47:11;;;;;;;6.63;2.60;;;;;;;26.03;48.05;98608.88;4917928;29;20179;-88
2023/05/21 12:49:41;;;;;;;5.03;2.17;;;;;;;26.06;46.88;98605.81;4918792;29;20186;-88
2023/05/21 12:52:10;;;;;;;4.57;2.57;;;;;;;26.08;47.33;98606.44;4918497;29;20319;-88